Time;durP1;ratioP1;P1;durP2;ratioP2;P2;SDS_P1;SDS_P2;PMS_P1;PMS_P2;Temp;Humidity;BMP_temperature;BMP_pressure;BME280_temperature;BME280_humidity;BME280_pressure;Samples;Min_cycle;Max_cycle;Signal;HPM_P1;HPM_P2
2022/05/24 00:02:07;;;;;;;19.13;13.50;;;16.50;99.90;;;;;;4976536;28;20026;-89
2022/05/24 00:04:33;;;;;;;15.80;13.93;;;16.40;99.90;;;;;;4959141;28;20065;-88
2022/05/24 00:07:00;;;;;;;18.05;13.98;;;16.40;99.90;;;;;;4959017;28;20074;-88
2022/05/24 00:09:26;;;;;;;18.45;14.50;;;16.40;99.90;;;;;;4976381;28;20015;-88
2022/05/24 00:11:52;;;;;;;19.77;15.23;;;16.40;99.90;;;;;;4975024;28;20116;-87
2022/05/24 00:15:19;;;;;;;16.77;13.45;;;16.30;99.90;;;;;;4943351;28;20035;-87
2022/05/24 00:17:06;;;;;;;16.80;14.35;;;16.30;99.90;;;;;;4948130;28;20538;-88
2022/05/24 00:19:33;;;;;;;19.65;15.02;;;16.30;99.90;;;;;;4959292;28;20113;-88
2022/05/24 00:21:58;;;;;;;20.75;16.52;;;16.30;99.90;;;;;;4968759;28;20475;-89
2022/05/24 00:24:24;;;;;;;18.38;16.13;;;16.30;99.90;;;;;;4939792;29;20046;-88
2022/05/24 00:26:50;;;;;;;20.15;16.75;;;16.30;99.90;;;;;;4939657;28;20034;-89
2022/05/24 00:29:15;;;;;;;18.52;16.17;;;16.30;99.90;;;;;;4923670;29;20470;-88
2022/05/24 00:31:41;;;;;;;19.08;16.88;;;16.30;99.90;;;;;;4923884;28;20035;-89
2022/05/24 00:34:07;;;;;;;24.40;19.30;;;16.30;99.90;;;;;;4926929;28;20065;-89
2022/05/24 00:36:32;;;;;;;20.67;18.00;;;16.30;99.90;;;;;;4943013;28;20038;-88
2022/05/24 00:38:58;;;;;;;22.92;19.80;;;16.30;99.90;;;;;;4958616;28;20034;-88
2022/05/24 00:41:36;;;;;;;27.38;21.92;;;16.30;99.90;;;;;;4926903;28;20034;-88
2022/05/24 00:44:06;;;;;;;25.02;22.05;;;16.30;99.90;;;;;;4975587;28;20041;-89
2022/05/24 00:46:57;;;;;;;26.88;22.00;;;16.30;99.90;;;;;;4975593;28;20045;-88
2022/05/24 00:49:45;;;;;;;26.58;22.13;;;16.30;99.90;;;;;;4958404;28;20471;-88
2022/05/24 00:52:27;;;;;;;26.60;23.33;;;16.30;99.90;;;;;;4958306;28;20053;-89
2022/05/24 00:54:53;;;;;;;27.30;22.38;;;16.20;99.90;;;;;;4958046;28;20081;-89
2022/05/24 00:57:35;;;;;;;26.17;22.38;;;16.20;99.90;;;;;;4958481;28;20018;-89
2022/05/24 01:00:07;;;;;;;28.08;22.85;;;16.20;99.90;;;;;;4975403;28;20023;-89
2022/05/24 01:02:36;;;;;;;28.23;22.08;;;16.10;99.90;;;;;;4958204;28;20447;-88
2022/05/24 01:05:06;;;;;;;32.03;23.63;;;16.10;99.90;;;;;;4975111;28;20109;-89
2022/05/24 01:07:32;;;;;;;26.30;22.77;;;16.10;99.90;;;;;;4958040;28;20042;-89
2022/05/24 01:10:16;;;;;;;28.30;23.52;;;16.10;99.90;;;;;;4957400;28;20023;-89
2022/05/24 01:12:48;;;;;;;28.35;22.58;;;16.10;99.90;;;;;;4975152;28;20061;-87
2022/05/24 01:15:16;;;;;;;27.75;23.15;;;16.10;99.90;;;;;;4958603;28;20037;-89
2022/05/24 01:17:43;;;;;;;28.15;21.75;;;16.00;99.90;;;;;;4975306;28;20015;-89
2022/05/24 01:20:10;;;;;;;30.52;23.52;;;16.00;99.90;;;;;;4958467;28;20038;-88
2022/05/24 01:22:38;;;;;;;27.38;23.50;;;16.00;99.90;;;;;;4958476;28;20031;-90
2022/05/24 01:25:48;;;;;;;30.67;24.73;;;16.00;99.90;;;;;;4975300;28;20042;-90
2022/05/24 01:28:22;;;;;;;31.00;25.60;;;16.00;99.90;;;;;;4958570;28;20026;-89
2022/05/24 01:30:48;;;;;;;33.47;27.35;;;15.90;99.90;;;;;;4976326;28;20082;-88
2022/05/24 01:36:10;;;;;;;36.00;27.00;;;15.90;99.90;;;;;;4930862;29;20400;-90
2022/05/24 01:38:37;;;;;;;35.85;28.83;;;15.90;99.90;;;;;;4941520;28;20031;-89
2022/05/24 01:41:03;;;;;;;38.05;28.05;;;15.80;99.90;;;;;;4959049;29;20070;-89
2022/05/24 01:43:29;;;;;;;34.22;28.55;;;15.80;99.90;;;;;;4946902;29;20061;-89
2022/05/24 01:46:04;;;;;;;33.53;27.60;;;15.80;99.90;;;;;;4948292;29;20042;-90
2022/05/24 01:48:36;;;;;;;30.70;25.42;;;15.80;99.90;;;;;;4966381;29;20127;-88
2022/05/24 01:51:04;;;;;;;30.42;24.55;;;15.80;99.90;;;;;;4946393;29;20389;-89
2022/05/24 01:53:46;;;;;;;28.08;23.48;;;15.70;99.90;;;;;;4961949;29;20114;-88
2022/05/24 01:56:17;;;;;;;27.83;22.98;;;15.70;99.90;;;;;;4959969;29;20074;-89
2022/05/24 01:58:44;;;;;;;;;;;15.60;99.90;;;;;;4959201;29;20045;-89
2022/05/24 02:01:23;;;;;;;28.30;21.23;;;15.60;99.90;;;;;;4958325;28;19907;-89
2022/05/24 02:03:49;;;;;;;30.58;22.05;;;15.50;99.90;;;;;;4958315;29;20460;-90
2022/05/24 02:06:22;;;;;;;26.90;21.08;;;15.50;99.90;;;;;;4958382;29;20032;-88
2022/05/24 02:08:50;;;;;;;27.25;21.98;;;15.50;99.90;;;;;;4959321;29;20507;-90
2022/05/24 02:11:20;;;;;;;25.15;20.13;;;15.50;99.90;;;;;;4959602;28;20141;-88
2022/05/24 02:13:48;;;;;;;27.92;21.35;;;15.40;99.90;;;;;;4959349;29;20023;-90
2022/05/24 02:16:21;;;;;;;23.77;20.02;;;15.50;99.90;;;;;;4959764;29;20027;-89
2022/05/24 02:18:49;;;;;;;24.48;17.75;;;15.40;99.90;;;;;;4958242;29;20462;-89
2022/05/24 02:21:14;;;;;;;22.75;17.80;;;15.40;99.90;;;;;;4958099;29;20192;-88
2022/05/24 02:23:46;;;;;;;24.02;18.25;;;15.40;99.90;;;;;;4957891;29;20118;-89
2022/05/24 02:26:13;;;;;;;20.27;16.08;;;15.40;99.90;;;;;;4958861;29;20046;-89
2022/05/24 02:28:39;;;;;;;22.75;14.77;;;15.40;99.90;;;;;;4943825;29;20027;-89
2022/05/24 02:31:11;;;;;;;19.40;13.65;;;15.40;99.90;;;;;;4958582;29;20066;-89
2022/05/24 02:33:36;;;;;;;18.38;12.20;;;15.40;99.90;;;;;;4957932;29;20035;-88
2022/05/24 02:36:03;;;;;;;16.52;10.13;;;15.30;99.90;;;;;;4957593;29;20198;-88
2022/05/24 02:38:29;;;;;;;14.07;10.27;;;15.40;99.90;;;;;;4957622;29;20058;-89
2022/05/24 02:43:39;;;;;;;16.27;9.35;;;15.30;99.90;;;;;;4958660;29;20077;-89
2022/05/24 02:46:07;;;;;;;17.55;8.73;;;15.20;99.90;;;;;;4957592;29;20031;-89
2022/05/24 02:48:33;;;;;;;15.52;8.27;;;15.20;99.90;;;;;;4957320;29;20023;-89
2022/05/24 02:50:58;;;;;;;10.48;7.30;;;15.20;99.90;;;;;;4941476;29;20091;-89
2022/05/24 02:53:25;;;;;;;11.38;7.85;;;15.20;99.90;;;;;;4941729;29;20078;-88
2022/05/24 02:55:51;;;;;;;17.25;7.88;;;15.10;99.90;;;;;;4957136;29;20175;-89
2022/05/24 02:58:17;;;;;;;11.07;7.00;;;15.10;99.90;;;;;;4941189;29;20078;-88
2022/05/24 03:00:43;;;;;;;11.90;7.20;;;15.10;99.90;;;;;;4941015;29;20086;-90
2022/05/24 03:03:08;;;;;;;12.27;6.60;;;15.00;99.90;;;;;;4941323;29;20043;-88
2022/05/24 03:05:34;;;;;;;15.18;6.57;;;15.00;99.90;;;;;;4941321;29;20036;-88
2022/05/24 03:10:44;;;;;;;13.05;6.10;;;14.90;99.90;;;;;;4944063;29;20063;-88
2022/05/24 03:15:55;;;;;;;11.40;5.72;;;14.90;99.90;;;;;;4943914;29;20099;-89
2022/05/24 03:18:22;;;;;;;16.83;6.18;;;14.80;99.90;;;;;;4941318;29;20106;-89
2022/05/24 03:20:48;;;;;;;19.17;7.53;;;14.80;99.90;;;;;;4958005;29;20062;-88
2022/05/24 03:23:14;;;;;;;9.65;5.22;;;14.70;99.90;;;;;;4941014;29;20464;-88
2022/05/24 03:25:40;;;;;;;13.18;5.43;;;14.70;99.90;;;;;;4940823;29;20063;-89
2022/05/24 03:28:07;;;;;;;11.48;5.35;;;14.70;99.90;;;;;;4940447;28;20023;-89
2022/05/24 03:30:39;;;;;;;11.80;5.60;;;14.70;99.90;;;;;;4959510;28;20027;-89
2022/05/24 03:33:05;;;;;;;13.32;5.45;;;14.70;99.90;;;;;;4959791;28;20319;-89
2022/05/24 03:35:30;;;;;;;10.00;5.25;;;14.70;99.90;;;;;;4977176;28;20117;-89
2022/05/24 03:37:56;;;;;;;9.70;4.95;;;14.70;99.90;;;;;;4928199;28;20403;-89
2022/05/24 03:40:22;;;;;;;13.80;5.35;;;14.70;99.90;;;;;;4943884;28;20041;-89
2022/05/24 03:42:51;;;;;;;10.27;5.78;;;14.70;99.90;;;;;;4944224;28;20533;-89
2022/05/24 03:45:18;;;;;;;9.60;5.45;;;14.70;99.90;;;;;;4977232;28;20106;-88
2022/05/24 03:47:44;;;;;;;11.98;5.60;;;14.70;99.90;;;;;;4959815;28;20159;-89
2022/05/24 03:50:10;;;;;;;11.88;5.25;;;14.70;99.90;;;;;;4962916;28;20066;-89
2022/05/24 03:52:36;;;;;;;15.02;5.25;;;14.70;99.90;;;;;;4931249;28;20582;-89
2022/05/24 03:55:01;;;;;;;12.32;4.43;;;14.60;99.90;;;;;;4960726;28;20026;-88
2022/05/24 04:00:15;;;;;;;10.63;5.32;;;14.60;99.90;;;;;;4965514;28;20197;-88
2022/05/24 04:02:41;;;;;;;11.57;4.55;;;14.60;99.90;;;;;;4978556;28;20027;-88
2022/05/24 04:05:08;;;;;;;12.10;5.22;;;14.50;99.90;;;;;;4978132;28;20038;-89
2022/05/24 04:07:33;;;;;;;11.82;5.13;;;14.50;99.90;;;;;;4946578;28;20126;-86
2022/05/24 04:10:01;;;;;;;14.38;4.90;;;14.50;99.90;;;;;;4946056;28;20478;-88
2022/05/24 04:12:27;;;;;;;8.23;4.63;;;14.50;99.90;;;;;;4978725;28;20019;-87
2022/05/24 04:14:53;;;;;;;9.38;4.80;;;14.40;99.90;;;;;;4962330;28;20566;-88
2022/05/24 04:17:19;;;;;;;9.32;5.00;;;14.40;99.90;;;;;;4946330;28;20062;-88
2022/05/24 04:19:44;;;;;;;12.45;4.97;;;14.40;99.90;;;;;;4930078;28;20063;-88
2022/05/24 04:22:11;;;;;;;10.73;5.28;;;14.40;99.90;;;;;;4931162;28;20102;-88
2022/05/24 04:24:37;;;;;;;14.43;6.07;;;14.40;99.90;;;;;;4930449;28;20098;-89
2022/05/24 04:27:05;;;;;;;10.65;5.05;;;14.40;99.90;;;;;;4942207;28;20027;-91
2022/05/24 04:29:31;;;;;;;9.75;5.65;;;14.40;99.90;;;;;;4977273;28;20027;-91
2022/05/24 04:31:57;;;;;;;11.57;6.32;;;14.40;99.90;;;;;;4944355;28;20034;-88
2022/05/24 04:34:25;;;;;;;11.80;6.38;;;14.40;99.90;;;;;;4958766;28;20047;-88
2022/05/24 04:36:53;;;;;;;15.43;6.10;;;14.40;99.90;;;;;;4943515;28;20030;-88
2022/05/24 04:39:18;;;;;;;12.88;5.95;;;14.30;99.90;;;;;;4977273;28;20079;-87
2022/05/24 04:44:28;;;;;;;10.85;5.72;;;14.30;99.90;;;;;;4995217;28;20444;-88
2022/05/24 04:47:10;;;;;;;11.88;5.85;;;14.30;99.90;;;;;;4962011;28;20034;-89
2022/05/24 04:49:41;;;;;;;11.57;5.90;;;14.30;99.90;;;;;;4964309;28;20458;-88
2022/05/24 04:52:08;;;;;;;12.73;5.97;;;14.40;99.90;;;;;;4995147;28;20019;-88
2022/05/24 04:54:35;;;;;;;15.27;6.90;;;14.40;99.90;;;;;;4961887;28;20493;-90
2022/05/24 04:57:01;;;;;;;11.77;6.85;;;14.30;99.90;;;;;;4971176;28;20489;-89
2022/05/24 04:59:30;;;;;;;13.82;6.22;;;14.30;99.90;;;;;;4958786;28;20085;-88
2022/05/24 05:02:04;;;;;;;14.10;6.15;;;14.30;99.90;;;;;;4964994;28;20026;-87
2022/05/24 05:04:30;;;;;;;14.88;6.50;;;14.30;99.90;;;;;;4928727;28;20038;-87
2022/05/24 05:06:56;;;;;;;13.75;7.40;;;14.30;99.90;;;;;;4975584;28;20092;-88
2022/05/24 05:09:22;;;;;;;11.13;6.80;;;14.30;99.90;;;;;;4958025;28;20437;-88
2022/05/24 05:11:48;;;;;;;11.70;6.90;;;14.30;99.90;;;;;;4974777;28;20117;-90
2022/05/24 05:14:14;;;;;;;12.50;7.75;;;14.30;99.90;;;;;;4941088;28;20113;-87
2022/05/24 05:16:40;;;;;;;15.65;7.95;;;14.30;99.90;;;;;;4958532;28;20353;-88
2022/05/24 05:19:12;;;;;;;14.25;8.48;;;14.30;99.90;;;;;;4963799;28;20032;-90
2022/05/24 05:21:39;;;;;;;16.40;8.18;;;14.30;99.90;;;;;;4956470;29;20024;-87
2022/05/24 05:24:07;;;;;;;14.63;8.05;;;14.40;99.90;;;;;;4931988;29;20039;-89
2022/05/24 05:26:33;;;;;;;13.50;8.20;;;14.30;99.90;;;;;;4955546;29;20058;-87
2022/05/24 05:28:59;;;;;;;14.52;8.57;;;14.40;99.90;;;;;;4938443;29;20528;-88
2022/05/24 05:31:26;;;;;;;14.65;8.93;;;14.30;99.90;;;;;;4955565;29;20035;-88
2022/05/24 05:34:01;;;;;;;12.98;8.43;;;14.30;99.90;;;;;;4938715;29;20069;-87
2022/05/24 05:36:29;;;;;;;15.50;9.02;;;14.30;99.90;;;;;;4931181;28;20034;-88
2022/05/24 05:38:55;;;;;;;14.95;8.93;;;14.30;99.90;;;;;;4958963;28;20019;-89
2022/05/24 05:41:24;;;;;;;12.77;8.80;;;14.30;99.90;;;;;;4961471;28;20023;-88
2022/05/24 05:43:50;;;;;;;15.63;8.40;;;14.20;99.90;;;;;;4979698;28;20037;-89
2022/05/24 05:46:17;;;;;;;17.83;9.27;;;14.20;99.90;;;;;;4960584;28;20067;-88
2022/05/24 05:48:43;;;;;;;13.90;8.85;;;14.20;99.90;;;;;;4977821;28;20180;-87
2022/05/24 05:51:10;;;;;;;12.73;7.95;;;14.30;99.90;;;;;;4959675;28;20451;-86
2022/05/24 05:53:36;;;;;;;12.88;8.40;;;14.20;99.90;;;;;;4959496;28;20039;-88
2022/05/24 05:56:03;;;;;;;16.35;8.95;;;14.10;99.90;;;;;;4960464;28;20097;-89
2022/05/24 05:58:30;;;;;;;13.88;9.30;;;14.10;99.90;;;;;;4980784;28;20046;-88
2022/05/24 06:00:56;;;;;;;15.55;9.90;;;14.10;99.90;;;;;;4939493;28;20046;-87
2022/05/24 06:03:22;;;;;;;19.42;9.85;;;14.10;99.90;;;;;;4941796;28;20078;-89
2022/05/24 06:05:51;;;;;;;13.43;9.43;;;14.10;99.90;;;;;;4960728;28;20102;-88
2022/05/24 06:08:17;;;;;;;15.98;9.68;;;14.10;99.90;;;;;;4984630;28;20030;-88
2022/05/24 06:10:43;;;;;;;15.32;9.68;;;14.10;99.90;;;;;;4944231;28;20059;-85
2022/05/24 06:13:09;;;;;;;15.13;9.00;;;14.10;99.90;;;;;;4960721;28;20019;-84
2022/05/24 06:15:35;;;;;;;14.60;9.15;;;14.10;99.90;;;;;;4949417;28;20109;-87
2022/05/24 06:18:01;;;;;;;21.63;9.50;;;14.10;99.90;;;;;;4948762;28;20027;-85
2022/05/24 06:20:29;;;;;;;15.95;8.77;;;14.10;99.90;;;;;;4966740;28;20050;-87
2022/05/24 06:22:57;;;;;;;11.82;8.52;;;14.20;99.90;;;;;;4956602;28;20523;-88
2022/05/24 06:25:29;;;;;;;12.93;9.00;;;14.10;99.90;;;;;;4972948;28;20026;-90
2022/05/24 06:27:56;;;;;;;14.23;9.00;;;14.10;99.90;;;;;;4972530;28;20018;-88
2022/05/24 06:30:23;;;;;;;15.18;9.00;;;14.10;99.90;;;;;;4983017;28;20050;-88
2022/05/24 06:32:50;;;;;;;15.50;9.60;;;14.20;99.90;;;;;;4965588;28;20447;-88
2022/05/24 06:35:16;;;;;;;16.70;8.98;;;14.10;99.90;;;;;;4982470;28;20035;-88
2022/05/24 06:37:42;;;;;;;12.90;7.80;;;14.10;99.90;;;;;;4964227;28;20038;-90
2022/05/24 06:40:11;;;;;;;15.63;8.13;;;14.10;99.90;;;;;;4998819;28;20027;-88
2022/05/24 06:42:36;;;;;;;16.00;7.75;;;14.10;99.90;;;;;;4981514;28;20101;-88
2022/05/24 06:45:03;;;;;;;12.73;7.75;;;14.10;99.90;;;;;;4976008;28;20118;-88
2022/05/24 06:47:29;;;;;;;12.43;8.02;;;14.10;99.90;;;;;;4968077;28;20035;-90
2022/05/24 06:49:55;;;;;;;15.02;8.57;;;14.10;99.90;;;;;;4962824;28;20090;-88
2022/05/24 06:52:22;;;;;;;12.98;7.63;;;14.10;99.90;;;;;;4983806;28;20027;-87
2022/05/24 06:54:47;;;;;;;17.02;9.10;;;14.10;99.90;;;;;;4972539;28;20113;-88
2022/05/24 06:57:13;;;;;;;13.57;8.82;;;14.10;99.90;;;;;;4962519;28;20060;-89
2022/05/24 07:02:26;;;;;;;12.05;8.70;;;14.10;99.90;;;;;;4995289;28;20063;-90
2022/05/24 07:05:03;;;;;;;13.77;9.77;;;14.10;99.90;;;;;;4991083;28;20026;-93
2022/05/24 07:07:33;;;;;;;12.93;8.63;;;14.20;99.90;;;;;;5008754;28;20093;-91
2022/05/24 07:10:03;;;;;;;16.83;9.57;;;14.20;99.90;;;;;;4990912;28;20042;-92
2022/05/24 07:12:29;;;;;;;17.75;9.60;;;14.20;99.90;;;;;;4987851;28;20051;-91
2022/05/24 07:14:58;;;;;;;13.13;8.82;;;14.30;99.90;;;;;;4987597;28;20121;-92
2022/05/24 07:17:37;;;;;;;13.13;9.65;;;14.30;99.90;;;;;;4987775;28;20106;-92
2022/05/24 07:20:27;;;;;;;13.77;9.73;;;14.30;99.90;;;;;;4973880;28;20034;-92
2022/05/24 07:23:07;;;;;;;10.60;9.20;;;14.30;99.90;;;;;;4994433;28;20082;-91
2022/05/24 07:25:36;;;;;;;17.92;9.43;;;14.30;99.90;;;;;;4986864;28;19928;-90
2022/05/24 07:28:05;;;;;;;14.52;8.93;;;14.40;99.90;;;;;;5002838;28;20458;-91
2022/05/24 07:30:32;;;;;;;15.90;9.65;;;14.40;99.90;;;;;;4985991;28;20082;-90
2022/05/24 07:32:59;;;;;;;13.52;8.88;;;14.40;99.90;;;;;;4986101;28;20065;-90
2022/05/24 07:35:28;;;;;;;16.05;8.57;;;14.50;99.90;;;;;;4982925;28;20532;-90
2022/05/24 07:37:54;;;;;;;10.27;8.13;;;14.60;99.90;;;;;;4979302;28;20037;-90
2022/05/24 07:45:52;;;;;;;8.80;6.60;;;14.70;99.90;;;;;;4967056;28;20069;-90
2022/05/24 07:48:21;;;;;;;13.73;6.78;;;14.70;99.90;;;;;;4957889;29;20037;-90
2022/05/24 07:50:52;;;;;;;8.25;6.22;;;14.80;99.90;;;;;;4940410;29;20131;-92
2022/05/24 07:53:18;;;;;;;11.55;5.95;;;14.80;99.90;;;;;;4941765;29;20031;-92
2022/05/24 07:55:44;;;;;;;10.80;5.13;;;14.80;99.90;;;;;;4956631;29;20058;-89
2022/05/24 07:58:20;;;;;;;9.27;4.65;;;14.90;99.90;;;;;;4957303;29;20463;-90
2022/05/24 08:00:48;;;;;;;8.18;4.30;;;14.90;99.90;;;;;;4957828;29;20027;-90
2022/05/24 08:03:14;;;;;;;7.55;4.13;;;15.00;99.90;;;;;;4940611;29;20043;-90
2022/05/24 08:05:43;;;;;;;5.97;4.10;;;15.00;99.90;;;;;;4957598;29;20027;-92
2022/05/24 08:08:14;;;;;;;7.13;4.78;;;15.10;99.90;;;;;;4956638;29;20028;-91
2022/05/24 08:10:43;;;;;;;;;;;15.20;99.90;;;;;;4957341;28;20067;-91
2022/05/24 08:13:19;;;;;;;8.68;4.50;;;15.30;99.90;;;;;;4941421;29;20351;-92
2022/05/24 08:15:47;;;;;;;8.60;3.90;;;15.30;99.90;;;;;;4957243;29;20030;-92
2022/05/24 08:18:23;;;;;;;11.00;4.75;;;15.30;99.60;;;;;;4963460;29;20091;-93
2022/05/24 08:20:52;;;;;;;8.65;5.20;;;15.40;99.20;;;;;;4960706;29;20032;-92
2022/05/24 08:23:23;;;;;;;8.15;4.68;;;15.40;99.10;;;;;;4945869;29;20027;-92
2022/05/24 08:25:50;;;;;;;5.38;3.08;;;15.50;98.90;;;;;;4977712;28;20090;-91
2022/05/24 08:28:19;;;;;;;5.93;2.42;;;15.50;98.70;;;;;;4976985;28;20019;-91
2022/05/24 08:30:45;;;;;;;8.30;2.60;;;15.50;98.70;;;;;;4945392;29;20019;-90
2022/05/24 08:33:13;;;;;;;6.68;2.90;;;15.50;98.00;;;;;;4948869;29;20027;-91
2022/05/24 08:35:39;;;;;;;5.32;2.42;;;15.50;98.20;;;;;;4956005;28;20062;-90
2022/05/24 08:38:06;;;;;;;5.68;2.67;;;15.50;97.50;;;;;;4957382;28;20047;-90
2022/05/24 08:40:35;;;;;;;4.63;2.30;;;15.50;97.80;;;;;;4968369;28;20105;-89
2022/05/24 08:43:20;;;;;;;7.85;2.90;;;15.50;98.40;;;;;;4952441;28;20026;-90
2022/05/24 08:48:46;;;;;;;6.13;3.08;;;15.70;98.90;;;;;;4976681;28;20041;-90
2022/05/24 08:51:29;;;;;;;8.73;3.25;;;15.80;98.90;;;;;;4959881;28;20099;-91
2022/05/24 08:53:59;;;;;;;2.78;2.40;;;15.90;98.70;;;;;;4959296;28;20066;-92
2022/05/24 08:56:53;;;;;;;6.77;2.60;;;16.00;98.50;;;;;;4959468;28;20027;-92
2022/05/24 08:59:36;;;;;;;;;;;;;;;;;;;;;
2022/05/24 09:02:03;;;;;;;15.10;3.05;;;16.00;98.20;;;;;;4980373;28;20078;-90
2022/05/24 09:04:55;;;;;;;6.07;3.28;;;16.00;98.70;;;;;;4959952;28;20053;-91
2022/05/24 09:07:29;;;;;;;9.68;3.63;;;15.90;99.20;;;;;;4976564;28;20047;-91
2022/05/24 09:10:28;;;;;;;8.00;3.30;;;15.90;99.90;;;;;;4959203;28;20023;-91
2022/05/24 09:13:04;;;;;;;6.85;3.05;;;15.80;99.90;;;;;;4959257;28;20038;-91
2022/05/24 09:15:47;;;;;;;5.15;2.88;;;15.80;99.90;;;;;;4958984;28;20031;-91
2022/05/24 09:18:31;;;;;;;5.85;2.72;;;15.80;99.90;;;;;;4976528;28;20030;-91
2022/05/24 09:20:57;;;;;;;5.40;2.50;;;15.70;99.90;;;;;;4976657;28;20030;-91
2022/05/24 09:23:36;;;;;;;5.60;2.55;;;15.70;99.90;;;;;;4958741;28;20027;-90
2022/05/24 09:26:17;;;;;;;5.55;3.00;;;15.70;99.90;;;;;;4954027;28;20039;-91
2022/05/24 09:28:57;;;;;;;4.88;3.15;;;15.60;99.90;;;;;;4940070;29;20038;-91
2022/05/24 09:31:32;;;;;;;5.63;3.58;;;15.60;99.90;;;;;;4969046;28;20031;-92
2022/05/24 09:34:07;;;;;;;5.65;3.55;;;15.60;99.90;;;;;;4980317;28;20045;-90
2022/05/24 09:36:52;;;;;;;6.38;3.53;;;15.70;99.90;;;;;;4958886;28;20122;-90
2022/05/24 09:39:30;;;;;;;5.35;3.45;;;15.70;99.90;;;;;;4971239;28;20037;-90
2022/05/24 09:42:12;;;;;;;6.80;3.80;;;15.80;99.90;;;;;;4988756;28;20050;-90
2022/05/24 09:45:21;;;;;;;6.40;2.83;;;15.80;99.90;;;;;;4965622;28;20028;-91
2022/05/24 09:48:04;;;;;;;4.85;3.10;;;15.80;99.90;;;;;;4948155;28;20049;-91
2022/05/24 09:50:37;;;;;;;4.85;3.00;;;15.80;99.90;;;;;;4944463;29;20023;-91
2022/05/24 09:53:06;;;;;;;7.32;3.03;;;15.70;99.90;;;;;;4956332;29;20059;-90
2022/05/24 09:55:49;;;;;;;5.07;2.50;;;15.70;99.90;;;;;;4941675;29;20031;-90
2022/05/24 09:58:34;;;;;;;4.78;2.35;;;15.70;99.90;;;;;;4958205;29;20034;-90
2022/05/24 10:01:39;;;;;;;5.15;2.50;;;15.70;99.90;;;;;;4946109;29;20123;-90
2022/05/24 10:04:25;;;;;;;4.03;2.58;;;15.80;99.90;;;;;;4962071;29;20091;-92
2022/05/24 10:07:04;;;;;;;7.32;2.30;;;15.80;99.90;;;;;;4960211;29;20059;-90
2022/05/24 10:10:07;;;;;;;4.00;1.40;;;16.00;99.90;;;;;;4959260;29;20459;-92
2022/05/24 10:12:50;;;;;;;4.85;1.25;;;16.10;99.50;;;;;;4959917;29;20039;-90
2022/05/24 10:15:44;;;;;;;4.18;1.00;;;16.20;98.10;;;;;;4960293;29;20043;-92
2022/05/24 10:18:34;;;;;;;1.75;1.10;;;16.20;98.20;;;;;;4960999;29;20023;-90
2022/05/24 10:21:17;;;;;;;12.48;1.70;;;16.30;97.20;;;;;;4942679;29;20031;-91
2022/05/24 10:23:55;;;;;;;2.88;1.40;;;16.30;97.70;;;;;;4958501;29;20031;-91
2022/05/24 10:26:34;;;;;;;5.95;1.83;;;16.40;97.60;;;;;;4948589;29;20063;-90
2022/05/24 10:29:24;;;;;;;3.50;1.60;;;16.40;97.00;;;;;;4947366;29;20027;-91
2022/05/24 10:32:06;;;;;;;5.05;1.50;;;16.40;96.70;;;;;;4969106;28;20485;-90
2022/05/24 10:38:20;;;;;;;3.22;1.73;;;16.30;97.40;;;;;;4958303;28;20033;-88
2022/05/24 10:41:25;;;;;;;3.25;1.77;;;16.30;98.10;;;;;;4965928;28;20034;-89
2022/05/24 10:43:56;;;;;;;3.85;1.80;;;16.40;98.10;;;;;;4964221;28;20048;-90
2022/05/24 10:46:30;;;;;;;7.85;1.80;;;16.50;97.90;;;;;;4961918;28;20023;-92
2022/05/24 10:49:04;;;;;;;2.95;1.67;;;16.50;97.20;;;;;;4987826;28;20382;-90
2022/05/24 10:52:00;;;;;;;5.22;1.35;;;16.60;97.30;;;;;;5012535;28;20039;-91
2022/05/24 10:54:45;;;;;;;1.60;0.80;;;16.60;97.60;;;;;;5014324;28;20030;-89
2022/05/24 10:57:40;;;;;;;3.38;1.13;;;16.70;97.20;;;;;;4997300;28;20017;-88
2022/05/24 11:00:08;;;;;;;2.30;0.80;;;16.70;97.10;;;;;;4978102;28;20038;-89
2022/05/24 11:02:57;;;;;;;1.30;0.70;;;16.80;96.80;;;;;;4977411;28;20019;-90
2022/05/24 11:05:45;;;;;;;2.00;0.68;;;16.80;95.90;;;;;;4980210;28;20030;-90
2022/05/24 11:09:02;;;;;;;2.35;0.73;;;16.80;94.90;;;;;;4979832;28;20046;-90
2022/05/24 11:11:45;;;;;;;1.60;1.00;;;16.80;94.10;;;;;;4997495;28;20054;-89
2022/05/24 11:14:51;;;;;;;2.90;1.10;;;16.70;94.00;;;;;;4982645;28;20019;-88
2022/05/24 11:17:20;;;;;;;3.33;1.10;;;16.60;95.00;;;;;;4985903;28;20014;-89
2022/05/24 11:19:50;;;;;;;3.45;1.13;;;16.70;95.60;;;;;;4969343;28;20010;-90
2022/05/24 11:22:28;;;;;;;5.72;1.35;;;16.80;95.30;;;;;;4994151;28;20018;-90
2022/05/24 11:25:12;;;;;;;5.78;1.42;;;16.80;95.40;;;;;;4982742;28;20037;-89
2022/05/24 11:27:51;;;;;;;2.85;1.10;;;16.90;95.60;;;;;;4983751;28;20018;-88
2022/05/24 11:30:28;;;;;;;2.50;1.48;;;17.00;95.60;;;;;;4979879;28;20038;-92
2022/05/24 11:33:10;;;;;;;4.03;1.30;;;17.10;95.00;;;;;;4982687;28;20023;-90
2022/05/24 11:35:50;;;;;;;3.85;1.20;;;17.20;95.20;;;;;;4980758;28;20083;-90
2022/05/24 11:38:22;;;;;;;3.53;1.30;;;17.30;94.40;;;;;;4982435;28;20055;-90
2022/05/24 11:41:01;;;;;;;6.18;1.38;;;17.40;94.70;;;;;;4969765;28;20387;-90
2022/05/24 11:43:36;;;;;;;3.28;1.20;;;17.50;94.80;;;;;;4963258;28;20054;-89
2022/05/24 11:46:09;;;;;;;2.80;1.20;;;17.60;95.30;;;;;;4963459;28;20035;-90
2022/05/24 11:48:54;;;;;;;1.92;0.98;;;17.70;95.50;;;;;;4960558;28;20029;-90
2022/05/24 11:51:45;;;;;;;3.75;1.20;;;17.80;95.70;;;;;;4960192;28;20033;-91
2022/05/24 11:54:21;;;;;;;3.35;1.60;;;17.90;96.50;;;;;;4959991;28;20066;-90
2022/05/24 11:57:06;;;;;;;16.80;1.98;;;17.90;96.30;;;;;;4961137;28;20027;-91
2022/05/24 11:59:41;;;;;;;5.30;0.95;;;17.80;96.10;;;;;;4978097;28;20022;-91
2022/05/24 12:02:29;;;;;;;1.75;0.50;;;17.70;95.40;;;;;;4961156;28;20026;-90
2022/05/24 12:08:28;;;;;;;2.55;0.50;;;17.40;95.80;;;;;;4978455;28;20049;-90
2022/05/24 12:11:17;;;;;;;1.05;0.38;;;17.30;95.50;;;;;;4929616;28;20047;-89
2022/05/24 12:13:56;;;;;;;1.63;0.50;;;17.20;95.80;;;;;;4961496;28;20085;-89
2022/05/24 12:16:53;;;;;;;3.45;0.90;;;17.10;95.50;;;;;;4968994;28;20061;-89
2022/05/24 12:19:42;;;;;;;2.47;0.80;;;17.10;96.30;;;;;;4960747;28;20030;-91
2022/05/24 12:22:15;;;;;;;5.85;1.23;;;17.10;96.90;;;;;;4972316;28;20022;-90
2022/05/24 12:24:48;;;;;;;4.68;1.60;;;17.20;97.30;;;;;;4944428;28;20034;-89
2022/05/24 12:27:29;;;;;;;4.47;1.40;;;17.30;97.40;;;;;;4960229;28;20150;-91
2022/05/24 12:30:30;;;;;;;3.13;1.40;;;17.40;97.30;;;;;;4960020;28;20419;-90
2022/05/24 12:33:04;;;;;;;;;;;17.40;96.80;;;;;;4960627;28;20463;-90
2022/05/24 12:35:32;;;;;;;5.30;1.60;;;17.50;96.80;;;;;;4959820;28;20275;-90
2022/05/24 12:38:00;;;;;;;2.42;1.25;;;17.50;96.30;;;;;;4958931;28;20070;-89
2022/05/24 12:40:34;;;;;;;1.80;1.00;;;17.50;96.40;;;;;;4959564;28;20023;-90
2022/05/24 12:43:08;;;;;;;4.35;0.80;;;17.60;96.60;;;;;;4959457;28;20019;-90
2022/05/24 12:45:38;;;;;;;1.10;0.50;;;17.70;96.40;;;;;;4959608;28;20035;-90
2022/05/24 12:48:24;;;;;;;3.50;0.80;;;17.80;96.30;;;;;;4959773;28;20038;-90
2022/05/24 12:50:59;;;;;;;4.15;0.70;;;17.80;96.00;;;;;;4959816;28;20019;-89
2022/05/24 12:53:27;;;;;;;1.38;0.52;;;18.00;95.40;;;;;;4976767;28;20031;-89
2022/05/24 12:56:01;;;;;;;3.85;0.90;;;18.00;95.50;;;;;;4959929;28;20038;-90
2022/05/24 12:58:39;;;;;;;1.83;0.73;;;18.20;95.40;;;;;;4959610;28;20475;-88
2022/05/24 13:01:30;;;;;;;5.57;1.30;;;18.30;95.20;;;;;;4960377;28;20081;-90
2022/05/24 13:04:11;;;;;;;1.90;0.73;;;18.40;94.70;;;;;;4943540;28;20144;-88
2022/05/24 13:06:39;;;;;;;3.67;0.93;;;18.50;94.30;;;;;;4958552;28;20115;-89
2022/05/24 13:09:27;;;;;;;2.75;0.90;;;18.60;93.50;;;;;;4959283;28;20031;-89
2022/05/24 13:12:08;;;;;;;0.95;0.90;;;18.70;93.70;;;;;;4960102;28;20055;-89
2022/05/24 13:14:58;;;;;;;2.08;0.85;;;18.80;93.50;;;;;;4976552;28;20027;-91
2022/05/24 13:17:30;;;;;;;4.25;1.30;;;18.90;92.80;;;;;;4959393;28;20031;-89
2022/05/24 13:20:03;;;;;;;4.03;1.08;;;18.90;91.50;;;;;;4959017;28;20442;-91
2022/05/24 13:22:45;;;;;;;6.18;1.23;;;19.00;90.40;;;;;;4958858;28;20042;-89
2022/05/24 13:25:24;;;;;;;5.82;1.55;;;19.00;91.00;;;;;;4975915;28;20030;-89
2022/05/24 13:28:02;;;;;;;3.35;1.40;;;19.10;90.40;;;;;;4959174;28;20121;-91
2022/05/24 13:33:42;;;;;;;2.40;1.02;;;19.00;88.70;;;;;;4976841;28;20108;-90
2022/05/24 13:36:20;;;;;;;4.35;1.50;;;19.00;88.70;;;;;;4962016;28;20434;-89
2022/05/24 13:39:06;;;;;;;3.00;1.20;;;18.90;89.30;;;;;;4961179;28;20032;-88
2022/05/24 13:41:37;;;;;;;4.25;1.45;;;18.90;88.60;;;;;;4974278;28;20046;-91
2022/05/24 13:44:26;;;;;;;4.00;1.73;;;18.80;89.50;;;;;;4976170;28;20030;-93
2022/05/24 13:47:12;;;;;;;4.55;1.30;;;18.70;91.10;;;;;;4963661;28;20042;-92
2022/05/24 13:49:48;;;;;;;3.60;1.33;;;18.40;91.20;;;;;;4963350;28;20053;-93